Time;durP1;ratioP1;P1;durP2;ratioP2;P2;SDS_P1;SDS_P2;PMS_P1;PMS_P2;Temp;Humidity;BMP_temperature;BMP_pressure;BME280_temperature;BME280_humidity;BME280_pressure;Samples;Min_cycle;Max_cycle;Signal;HPM_P1;HPM_P2
2022/07/31 00:02:02;;;;;;;10.85;7.30;;;;;;;20.04;63.14;101684.88;5026921;28;20033;-79
2022/07/31 00:04:27;;;;;;;10.98;7.43;;;;;;;20.13;63.74;101681.25;5027246;28;20033;-79
2022/07/31 00:06:53;;;;;;;9.98;7.57;;;;;;;20.05;63.67;101678.63;5028558;28;20503;-80
2022/07/31 00:09:18;;;;;;;9.60;8.40;;;;;;;20.15;63.31;101679.28;5015906;28;20068;-79
2022/07/31 00:11:44;;;;;;;11.13;8.38;;;;;;;20.07;63.33;101679.28;5023831;28;20480;-79
2022/07/31 00:14:11;;;;;;;10.52;8.40;;;;;;;20.12;63.58;101673.50;5026595;28;20116;-80
2022/07/31 00:16:36;;;;;;;10.40;8.90;;;;;;;20.09;63.48;101666.78;5020385;28;20029;-79
2022/07/31 00:19:02;;;;;;;11.27;8.85;;;;;;;20.03;63.70;101672.72;5027590;28;20087;-79
2022/07/31 00:21:27;;;;;;;12.88;9.00;;;;;;;20.07;64.07;101681.94;5024426;28;20360;-80
2022/07/31 00:23:53;;;;;;;11.20;8.90;;;;;;;20.03;63.92;101672.72;5026727;28;20064;-80
2022/07/31 00:26:18;;;;;;;10.23;8.82;;;;;;;20.07;63.90;101668.75;5016436;28;20021;-79
2022/07/31 00:28:44;;;;;;;11.95;9.10;;;;;;;20.04;64.02;101670.91;5026899;28;20038;-80
2022/07/31 00:31:09;;;;;;;9.38;8.48;;;;;;;20.06;64.27;101664.47;5023204;28;20021;-78
2022/07/31 00:33:35;;;;;;;11.57;9.10;;;;;;;20.08;64.25;101662.50;5019271;28;20040;-79
2022/07/31 00:36:00;;;;;;;12.63;9.50;;;;;;;20.05;64.10;101662.81;5025042;28;20037;-80
2022/07/31 00:38:25;;;;;;;16.17;10.27;;;;;;;20.00;64.45;101659.84;5026696;28;20070;-79
2022/07/31 00:40:51;;;;;;;11.48;9.45;;;;;;;19.99;64.65;101668.75;5023817;28;20030;-79
2022/07/31 00:43:17;;;;;;;11.02;9.80;;;;;;;19.97;64.57;101665.47;5007773;28;20369;-80
2022/07/31 00:45:44;;;;;;;12.00;10.02;;;;;;;19.91;64.84;101660.88;5018562;28;20022;-80
2022/07/31 00:48:09;;;;;;;10.88;9.77;;;;;;;19.87;65.52;101655.09;5025647;28;20124;-79
2022/07/31 00:50:35;;;;;;;11.02;9.52;;;;;;;19.97;64.92;101654.94;5025493;28;20112;-79
2022/07/31 00:53:01;;;;;;;10.77;9.77;;;;;;;19.97;64.63;101647.03;5017128;28;20026;-78
2022/07/31 00:55:26;;;;;;;10.93;9.82;;;;;;;19.94;64.82;101642.09;5012692;28;20169;-78
2022/07/31 00:57:51;;;;;;;11.95;9.43;;;;;;;19.89;64.53;101637.31;5026488;28;20021;-79
2022/07/31 01:00:17;;;;;;;11.73;10.25;;;;;;;19.94;64.82;101628.94;5027966;28;20052;-80
2022/07/31 01:02:42;;;;;;;12.32;10.48;;;;;;;19.97;64.63;101631.25;5023158;28;20033;-80
2022/07/31 01:05:08;;;;;;;11.80;10.35;;;;;;;19.96;64.97;101629.59;5023350;28;20057;-80
2022/07/31 01:07:33;;;;;;;12.63;10.23;;;;;;;19.99;64.39;101621.34;5023923;28;20029;-78
2022/07/31 01:10:03;;;;;;;13.45;10.05;;;;;;;19.95;64.94;101625.31;5021394;28;20034;-80
2022/07/31 01:12:37;;;;;;;11.40;10.02;;;;;;;19.83;65.97;101626.63;5021701;28;20025;-80
2022/07/31 01:15:06;;;;;;;11.77;10.02;;;;;;;19.80;65.96;101627.00;5020533;28;20101;-80
2022/07/31 01:17:35;;;;;;;12.50;10.50;;;;;;;19.81;65.90;101628.63;5028094;28;20068;-80
2022/07/31 01:20:01;;;;;;;12.45;10.02;;;;;;;19.89;65.59;101625.97;5025712;28;20018;-79
2022/07/31 01:22:29;;;;;;;11.90;10.60;;;;;;;19.68;66.42;101628.31;5027291;28;20084;-79
2022/07/31 01:25:21;;;;;;;11.85;10.30;;;;;;;19.71;65.70;101625.34;5019721;28;20028;-78
2022/07/31 01:27:55;;;;;;;12.40;10.73;;;;;;;19.53;66.41;101626.28;5026965;28;20047;-79
2022/07/31 01:30:25;;;;;;;12.20;10.60;;;;;;;19.41;67.14;101622.34;5024234;28;20032;-80
2022/07/31 01:32:52;;;;;;;12.85;10.00;;;;;;;19.51;67.16;101607.22;5017268;28;20017;-79
2022/07/31 01:35:25;;;;;;;11.80;10.57;;;;;;;19.54;67.21;101616.59;5013220;28;20026;-79
2022/07/31 01:37:53;;;;;;;12.63;11.30;;;;;;;19.55;66.80;101619.03;5018741;28;20021;-80
2022/07/31 01:40:24;;;;;;;12.85;11.55;;;;;;;19.45;67.21;101601.81;5017223;28;20040;-80
2022/07/31 01:42:58;;;;;;;13.00;11.68;;;;;;;19.53;67.12;101621.03;5020730;28;20025;-80
2022/07/31 01:45:26;;;;;;;13.75;11.85;;;;;;;19.46;67.84;101609.53;5017495;28;20021;-79
2022/07/31 01:47:53;;;;;;;14.60;12.57;;;;;;;19.46;67.48;101606.06;5019601;28;20090;-79
2022/07/31 01:50:20;;;;;;;15.20;13.63;;;;;;;19.29;67.96;101597.34;5026813;28;20072;-79
2022/07/31 01:52:47;;;;;;;15.15;13.55;;;;;;;19.43;67.43;101604.56;5016805;28;20017;-79
2022/07/31 01:55:15;;;;;;;15.98;14.35;;;;;;;19.34;67.68;101600.31;5014612;28;20018;-79
2022/07/31 01:57:41;;;;;;;14.10;12.70;;;;;;;19.46;67.39;101603.44;5015116;28;20026;-79
2022/07/31 02:00:08;;;;;;;14.52;13.23;;;;;;;19.39;67.26;101603.28;5016791;28;20032;-79
2022/07/31 02:02:36;;;;;;;14.35;12.82;;;;;;;19.38;65.84;101612.13;5023059;28;20068;-79
2022/07/31 02:05:06;;;;;;;13.40;12.07;;;;;;;19.46;66.42;101612.16;5020274;28;20419;-79
2022/07/31 02:07:34;;;;;;;13.38;11.82;;;;;;;19.35;65.88;101612.47;5024007;28;20024;-79
2022/07/31 02:10:01;;;;;;;12.05;10.88;;;;;;;19.43;65.24;101625.63;5016319;28;20034;-79
2022/07/31 02:12:28;;;;;;;10.93;9.48;;;;;;;19.38;65.22;101620.03;5006430;28;20064;-79
2022/07/31 02:14:55;;;;;;;12.18;8.90;;;;;;;19.47;64.18;101611.16;5023504;28;20025;-79
2022/07/31 02:17:21;;;;;;;10.93;7.85;;;;;;;19.42;65.06;101624.00;5017553;28;20452;-79
2022/07/31 02:19:50;;;;;;;10.65;8.13;;;;;;;19.39;66.67;101608.53;5022096;28;20056;-80
2022/07/31 02:22:16;;;;;;;11.30;7.85;;;;;;;19.34;67.23;101605.56;5014520;28;20100;-79
2022/07/31 02:24:41;;;;;;;10.07;8.05;;;;;;;19.15;67.29;101605.88;5023669;28;20497;-79
2022/07/31 02:27:09;;;;;;;10.20;7.68;;;;;;;19.23;66.79;101595.38;5021845;28;20079;-80
2022/07/31 02:29:34;;;;;;;12.73;7.47;;;;;;;19.39;66.73;101598.03;5025975;28;20029;-79
2022/07/31 02:32:02;;;;;;;8.65;7.53;;;;;;;19.21;67.20;101606.06;5018749;28;20032;-79
2022/07/31 02:34:29;;;;;;;10.52;7.32;;;;;;;19.12;67.87;101595.69;5013126;28;20025;-79
2022/07/31 02:36:56;;;;;;;9.02;7.35;;;;;;;19.18;68.18;101605.56;5026210;28;20096;-79
2022/07/31 02:39:23;;;;;;;11.40;7.47;;;;;;;19.05;68.61;101596.34;5023451;28;20334;-79
2022/07/31 02:41:49;;;;;;;12.45;7.03;;;;;;;19.13;68.72;101605.22;5026916;28;20071;-79
2022/07/31 02:44:15;;;;;;;8.50;6.93;;;;;;;19.18;68.84;101611.63;5026550;28;20036;-79
2022/07/31 02:46:43;;;;;;;10.13;7.35;;;;;;;19.16;69.24;101612.81;5025048;28;20057;-79
2022/07/31 02:49:10;;;;;;;9.40;6.80;;;;;;;19.14;69.20;101609.47;5022533;28;20037;-79
2022/07/31 02:51:36;;;;;;;9.70;6.72;;;;;;;19.16;69.12;101602.28;5006565;28;20034;-79
2022/07/31 02:54:02;;;;;;;9.95;7.25;;;;;;;19.14;69.21;101604.22;5007518;28;20067;-79
2022/07/31 02:56:29;;;;;;;9.93;6.68;;;;;;;18.97;69.80;101598.94;5025481;28;20025;-78
2022/07/31 02:58:54;;;;;;;9.55;6.75;;;;;;;18.95;70.30;101595.66;5025305;28;20059;-78
2022/07/31 03:01:20;;;;;;;10.00;7.00;;;;;;;19.05;70.18;101598.97;5023759;28;20504;-79
2022/07/31 03:03:45;;;;;;;10.88;6.85;;;;;;;19.06;70.06;101597.16;5023397;28;20111;-79
2022/07/31 03:06:11;;;;;;;9.70;6.75;;;;;;;18.98;70.14;101590.09;5017576;28;20547;-79
2022/07/31 03:08:36;;;;;;;10.77;7.05;;;;;;;19.06;70.14;101597.97;5022252;28;20033;-80
2022/07/31 03:11:02;;;;;;;10.02;7.00;;;;;;;18.86;70.97;101588.72;5024324;28;20056;-80
2022/07/31 03:13:29;;;;;;;12.07;6.88;;;;;;;18.87;70.95;101579.88;5026156;28;20032;-79
2022/07/31 03:15:55;;;;;;;10.48;7.38;;;;;;;18.98;70.58;101584.84;5012417;28;20025;-79
2022/07/31 03:18:22;;;;;;;10.82;7.22;;;;;;;18.86;70.78;101578.22;5024688;28;20025;-79
2022/07/31 03:20:52;;;;;;;12.70;7.95;;;;;;;18.94;70.56;101583.50;5024871;28;20071;-79
2022/07/31 03:23:21;;;;;;;10.38;7.10;;;;;;;18.92;70.11;101585.44;5026248;28;20040;-79
2022/07/31 03:25:49;;;;;;;9.90;7.10;;;;;;;18.82;70.62;101584.78;5015706;28;20033;-78
2022/07/31 03:28:14;;;;;;;10.65;8.70;;;;;;;18.86;70.48;101570.31;5022085;28;20063;-79
2022/07/31 03:30:39;;;;;;;13.63;11.20;;;;;;;18.84;69.95;101577.56;5025266;28;20034;-79
2022/07/31 03:33:05;;;;;;;14.65;13.25;;;;;;;18.76;69.84;101575.75;5016802;28;20048;-79
2022/07/31 03:35:32;;;;;;;16.25;14.50;;;;;;;18.76;69.95;101569.66;5024049;28;20040;-79
2022/07/31 03:37:58;;;;;;;16.77;15.15;;;;;;;18.70;70.22;101573.75;5029037;28;20033;-78
2022/07/31 03:40:24;;;;;;;18.10;16.40;;;;;;;18.58;70.81;101569.75;5029646;28;20036;-79
2022/07/31 03:42:51;;;;;;;18.50;16.80;;;;;;;18.51;70.87;101560.84;5029981;28;20116;-78
2022/07/31 03:45:18;;;;;;;17.85;16.05;;;;;;;18.56;70.90;101575.13;5026616;28;20033;-79
2022/07/31 03:47:43;;;;;;;17.20;15.50;;;;;;;18.60;70.76;101564.31;5019963;28;20037;-79
2022/07/31 03:50:10;;;;;;;16.73;15.23;;;;;;;18.52;71.01;101573.84;5010075;28;20026;-79
2022/07/31 03:52:36;;;;;;;16.63;15.02;;;;;;;18.51;71.25;101566.91;5022836;28;20390;-79
2022/07/31 03:55:01;;;;;;;16.80;15.20;;;;;;;18.48;71.02;101556.75;5023106;28;20029;-78
2022/07/31 03:57:28;;;;;;;16.25;14.65;;;;;;;18.57;71.46;101566.28;5023257;28;20034;-79
2022/07/31 03:59:56;;;;;;;16.27;14.68;;;;;;;18.57;71.24;101571.53;5010822;28;20053;-79
2022/07/31 04:02:25;;;;;;;16.55;14.90;;;;;;;18.46;71.41;101566.56;5017176;28;20033;-77
2022/07/31 04:04:51;;;;;;;16.90;15.27;;;;;;;18.55;70.87;101563.00;5029446;28;20190;-79
2022/07/31 04:07:17;;;;;;;15.32;13.82;;;;;;;18.53;71.24;101564.97;5028524;28;20560;-79
2022/07/31 04:09:42;;;;;;;15.75;14.25;;;;;;;18.50;71.46;101560.00;5025178;28;20429;-79
2022/07/31 04:12:07;;;;;;;15.88;14.35;;;;;;;18.55;71.54;101560.38;5011081;28;20525;-79
2022/07/31 04:14:33;;;;;;;16.35;14.82;;;;;;;18.52;71.48;101567.72;5022609;28;20124;-79
2022/07/31 04:16:58;;;;;;;16.50;15.00;;;;;;;18.49;71.96;101570.69;5028924;28;20025;-79
2022/07/31 04:19:23;;;;;;;15.55;13.90;;;;;;;18.48;72.03;101562.00;5027784;28;20108;-79
2022/07/31 04:21:49;;;;;;;16.77;15.18;;;;;;;18.55;71.58;101565.63;5027248;28;20045;-79
2022/07/31 04:24:17;;;;;;;17.10;15.30;;;;;;;18.46;72.57;101569.19;5015916;28;20052;-79
2022/07/31 04:26:47;;;;;;;16.20;14.70;;;;;;;18.43;72.09;101572.16;5017786;28;20762;-79
2022/07/31 04:29:12;;;;;;;18.23;15.68;;;;;;;18.41;72.57;101571.50;5029208;28;20736;-79
2022/07/31 04:31:38;;;;;;;16.60;14.93;;;;;;;18.42;72.30;101578.38;5028136;28;20040;-79
2022/07/31 04:34:03;;;;;;;17.27;15.55;;;;;;;18.49;72.04;101584.66;5028627;28;20469;-79
2022/07/31 04:36:29;;;;;;;16.65;15.00;;;;;;;18.42;72.97;101583.63;5029236;28;20378;-79
2022/07/31 04:38:54;;;;;;;17.45;15.65;;;;;;;18.40;73.39;101572.44;5026754;28;20033;-79
2022/07/31 04:41:19;;;;;;;17.42;15.68;;;;;;;18.36;73.69;101581.66;5028907;28;20043;-79
2022/07/31 04:43:45;;;;;;;16.30;14.68;;;;;;;18.45;73.37;101588.56;5012529;28;20477;-79
2022/07/31 04:46:10;;;;;;;16.23;14.65;;;;;;;18.48;73.56;101572.50;5012062;28;20054;-79
2022/07/31 04:48:36;;;;;;;16.77;15.13;;;;;;;18.53;73.66;101580.72;5024476;28;20500;-77
2022/07/31 04:51:01;;;;;;;16.65;14.95;;;;;;;18.45;74.11;101572.81;5027649;28;20045;-79
2022/07/31 04:53:26;;;;;;;16.77;15.07;;;;;;;18.46;74.45;101574.44;5016089;28;20390;-78
2022/07/31 04:58:36;;;;;;;16.30;14.70;;;;;;;18.51;73.59;101564.28;5009448;28;20044;-79
2022/07/31 05:01:01;;;;;;;16.13;14.52;;;;;;;18.48;74.27;101567.25;5009647;28;20017;-79
2022/07/31 05:03:27;;;;;;;16.27;14.48;;;;;;;18.56;73.62;101564.63;5022617;28;20493;-79
2022/07/31 05:05:52;;;;;;;15.15;13.55;;;;;;;18.62;73.48;101568.44;5028606;28;20025;-79
2022/07/31 05:08:17;;;;;;;14.18;12.75;;;;;;;18.64;73.13;101566.47;5028593;28;20064;-79
2022/07/31 05:13:27;;;;;;;15.68;14.10;;;;;;;18.49;73.58;101558.38;5027914;28;20028;-79
2022/07/31 05:15:52;;;;;;;17.88;14.27;;;;;;;18.44;74.51;101549.31;5028477;28;20037;-78
2022/07/31 05:18:18;;;;;;;15.85;14.15;;;;;;;18.64;73.97;101561.22;5014421;28;20454;-79
2022/07/31 05:20:43;;;;;;;15.20;13.70;;;;;;;18.49;75.06;101557.56;5028669;28;20112;-79
2022/07/31 05:23:08;;;;;;;14.88;13.32;;;;;;;18.67;73.92;101549.56;5027717;28;20029;-78
2022/07/31 05:25:34;;;;;;;17.60;14.50;;;;;;;18.62;73.88;101542.16;5028311;28;20033;-80
2022/07/31 05:27:59;;;;;;;16.35;14.70;;;;;;;18.54;75.50;101555.28;5012075;28;20380;-79
2022/07/31 05:30:24;;;;;;;16.23;14.73;;;;;;;18.64;74.11;101545.47;5017884;28;20048;-79
2022/07/31 05:32:50;;;;;;;16.42;14.55;;;;;;;18.68;74.21;101546.78;5027930;28;20363;-79
2022/07/31 05:35:15;;;;;;;16.30;14.60;;;;;;;18.58;75.40;101552.19;5027419;28;20076;-79
2022/07/31 05:37:41;;;;;;;16.70;15.00;;;;;;;18.55;75.38;101552.47;5024822;28;20059;-79
2022/07/31 05:40:07;;;;;;;15.98;14.38;;;;;;;18.56;75.33;101559.38;5027875;28;20087;-78
2022/07/31 05:42:32;;;;;;;16.45;14.73;;;;;;;18.39;76.22;101556.84;5027505;28;20033;-78
2022/07/31 05:44:57;;;;;;;17.90;15.40;;;;;;;18.36;76.63;101552.75;5027644;28;20025;-79
2022/07/31 05:47:23;;;;;;;17.00;15.30;;;;;;;18.31;76.64;101552.41;5025942;28;20045;-79
2022/07/31 05:49:48;;;;;;;17.70;15.82;;;;;;;18.36;77.04;101558.00;5027705;28;20484;-78
2022/07/31 05:52:16;;;;;;;18.38;16.27;;;;;;;18.48;76.56;101559.38;5019951;28;20068;-79
2022/07/31 05:54:44;;;;;;;18.48;16.55;;;;;;;18.42;76.93;101553.94;5027771;28;20548;-78
2022/07/31 05:57:09;;;;;;;17.98;16.17;;;;;;;18.50;76.16;101570.53;5022966;28;20437;-79
2022/07/31 05:59:35;;;;;;;18.70;16.90;;;;;;;18.37;76.34;101567.53;5027029;28;20021;-77
2022/07/31 06:02:00;;;;;;;19.38;17.48;;;;;;;18.33;76.66;101563.56;5026245;28;20569;-79
2022/07/31 06:04:25;;;;;;;18.58;16.88;;;;;;;18.53;75.02;101566.78;5020176;28;20109;-79
2022/07/31 06:06:51;;;;;;;19.30;17.42;;;;;;;18.51;75.40;101563.47;5022141;28;20032;-79
2022/07/31 06:09:16;;;;;;;19.50;17.70;;;;;;;18.49;75.24;101563.63;5027030;28;20049;-79
2022/07/31 06:11:41;;;;;;;19.42;17.58;;;;;;;18.45;76.09;101575.44;5026665;28;20373;-79
2022/07/31 06:14:08;;;;;;;18.95;17.15;;;;;;;18.49;75.21;101558.38;5025998;28;20535;-79
2022/07/31 06:16:33;;;;;;;19.23;17.50;;;;;;;18.58;74.30;101567.94;5026568;28;20021;-79
2022/07/31 06:18:59;;;;;;;18.85;16.92;;;;;;;18.65;74.10;101562.03;5027241;28;20062;-79
2022/07/31 06:21:24;;;;;;;18.50;16.55;;;;;;;18.67;74.04;101570.59;5026349;28;20395;-79
2022/07/31 06:23:49;;;;;;;18.42;16.73;;;;;;;18.63;74.30;101564.00;5019920;28;20518;-79
2022/07/31 06:26:15;;;;;;;18.58;16.67;;;;;;;18.42;75.55;101557.38;5024992;28;20099;-79
2022/07/31 06:28:40;;;;;;;18.20;16.33;;;;;;;18.59;74.51;101563.50;5022050;28;20121;-81
2022/07/31 06:31:06;;;;;;;19.05;17.13;;;;;;;18.51;75.56;101566.91;5009475;28;20030;-79
2022/07/31 06:33:31;;;;;;;17.63;15.82;;;;;;;18.51;75.67;101561.66;5013337;28;20021;-80
2022/07/31 06:35:56;;;;;;;16.38;14.85;;;;;;;18.59;74.44;101558.25;5012022;28;20034;-79
2022/07/31 06:38:23;;;;;;;16.92;15.32;;;;;;;18.49;75.83;101553.13;5011626;28;20041;-80
2022/07/31 06:40:49;;;;;;;17.13;15.38;;;;;;;18.39;76.68;101555.03;5012308;28;20157;-80
2022/07/31 06:43:15;;;;;;;16.50;14.95;;;;;;;18.49;76.43;101557.56;5008625;28;20103;-79
2022/07/31 06:45:41;;;;;;;16.75;15.15;;;;;;;18.44;77.26;101544.06;5006736;28;20112;-80
2022/07/31 06:48:11;;;;;;;17.77;13.90;;;;;;;18.65;76.03;101546.28;5009638;28;20553;-80
2022/07/31 06:50:36;;;;;;;14.32;12.82;;;;;;;18.70;75.18;101541.41;5009716;28;20334;-79
2022/07/31 06:53:01;;;;;;;15.10;13.57;;;;;;;18.79;75.44;101556.19;5021319;28;20017;-78
2022/07/31 06:55:27;;;;;;;14.00;12.50;;;;;;;18.82;75.26;101564.59;5024058;28;20021;-79
2022/07/31 06:57:52;;;;;;;14.30;12.82;;;;;;;18.74;76.46;101561.09;5019777;28;20884;-80
2022/07/31 07:00:19;;;;;;;14.35;12.88;;;;;;;18.78;75.59;101559.81;5011463;28;20029;-78
2022/07/31 07:02:44;;;;;;;13.25;11.88;;;;;;;18.93;75.37;101560.81;5021822;28;20070;-80
2022/07/31 07:05:10;;;;;;;12.77;11.57;;;;;;;18.84;76.14;101561.78;5011498;28;20029;-79
2022/07/31 07:07:36;;;;;;;12.98;11.32;;;;;;;18.93;75.42;101566.09;5015435;28;20021;-79
2022/07/31 07:10:03;;;;;;;12.35;11.15;;;;;;;18.70;76.83;101562.44;5014900;28;20455;-80
2022/07/31 07:12:29;;;;;;;12.70;11.40;;;;;;;18.88;76.11;101557.88;5013676;28;20052;-79
2022/07/31 07:14:54;;;;;;;12.40;11.07;;;;;;;18.80;77.17;101555.19;5016387;28;20025;-79
2022/07/31 07:17:20;;;;;;;12.20;10.73;;;;;;;18.95;75.76;101556.22;5011028;28;20030;-79
2022/07/31 07:19:46;;;;;;;12.07;10.88;;;;;;;19.00;75.93;101553.94;5012729;28;20021;-78
2022/07/31 07:22:11;;;;;;;13.15;11.10;;;;;;;19.06;75.72;101555.09;5018377;28;20491;-79
2022/07/31 07:24:36;;;;;;;12.48;10.68;;;;;;;19.06;75.60;101555.91;5023928;28;20033;-78
2022/07/31 07:27:02;;;;;;;14.43;11.25;;;;;;;18.95;76.11;101537.00;5018729;28;20036;-79
2022/07/31 07:29:27;;;;;;;15.68;11.65;;;;;;;18.88;76.71;101547.34;5012615;28;20025;-79
2022/07/31 07:31:52;;;;;;;12.93;11.63;;;;;;;18.95;76.72;101545.72;5021181;28;20027;-79
2022/07/31 07:34:18;;;;;;;13.02;11.63;;;;;;;19.00;77.63;101556.56;5021355;28;20092;-79
2022/07/31 07:36:43;;;;;;;12.57;11.27;;;;;;;19.14;76.54;101549.00;5012612;28;20125;-79
2022/07/31 07:39:09;;;;;;;13.65;11.88;;;;;;;19.10;77.00;101546.72;5014810;28;20346;-79
2022/07/31 07:41:34;;;;;;;13.70;12.20;;;;;;;19.23;75.83;101551.47;5020239;28;20458;-78
2022/07/31 07:44:00;;;;;;;14.77;12.15;;;;;;;19.25;76.31;101553.94;5012288;28;20366;-79
2022/07/31 07:46:25;;;;;;;15.48;12.27;;;;;;;19.23;76.59;101545.41;5017316;28;20477;-78
2022/07/31 07:48:51;;;;;;;14.40;12.43;;;;;;;19.33;75.56;101540.81;5013123;28;20105;-79
2022/07/31 07:51:17;;;;;;;14.43;12.85;;;;;;;19.33;75.38;101538.19;5017866;28;20038;-77
2022/07/31 07:53:43;;;;;;;14.35;12.73;;;;;;;19.32;76.57;101539.13;5021061;28;20025;-79
2022/07/31 07:56:08;;;;;;;15.90;13.73;;;;;;;19.34;76.54;101531.94;5019476;28;20033;-79
2022/07/31 07:58:34;;;;;;;15.57;13.63;;;;;;;19.39;75.81;101534.88;5019725;28;20535;-79
2022/07/31 08:01:00;;;;;;;18.55;13.50;;;;;;;19.44;75.72;101537.00;5025623;28;20041;-80
2022/07/31 08:03:25;;;;;;;15.75;13.35;;;;;;;19.43;77.17;101530.91;5025541;28;20032;-79
2022/07/31 08:05:51;;;;;;;16.15;13.05;;;;;;;19.56;75.53;101526.00;5009495;28;20034;-79
2022/07/31 08:08:16;;;;;;;15.80;14.02;;;;;;;19.54;75.88;101527.94;5018287;28;20437;-78
2022/07/31 08:10:42;;;;;;;16.13;14.27;;;;;;;19.65;75.67;101539.16;5011773;28;21137;-79
2022/07/31 08:13:08;;;;;;;15.07;13.27;;;;;;;19.65;76.19;101539.16;5010825;28;20026;-79
2022/07/31 08:15:33;;;;;;;16.40;13.95;;;;;;;19.74;76.34;101527.63;5014248;28;20385;-80
2022/07/31 08:17:58;;;;;;;15.65;13.13;;;;;;;19.87;75.26;101530.56;5012238;28;20028;-80
2022/07/31 08:20:24;;;;;;;17.33;14.20;;;;;;;19.77;75.58;101528.09;5017935;28;20021;-79
2022/07/31 08:22:49;;;;;;;14.70;13.15;;;;;;;19.84;75.18;101522.97;5020607;28;20018;-79
2022/07/31 08:25:14;;;;;;;15.77;12.95;;;;;;;19.97;75.16;101523.28;5013565;28;20030;-79
2022/07/31 08:27:40;;;;;;;15.40;12.60;;;;;;;19.95;74.64;101519.97;5021562;28;20033;-79
2022/07/31 08:30:06;;;;;;;16.23;13.30;;;;;;;19.93;75.30;101516.72;5017664;28;20121;-80
2022/07/31 08:32:31;;;;;;;14.77;12.93;;;;;;;19.95;75.87;101530.50;5024202;28;20030;-79
2022/07/31 08:34:57;;;;;;;15.45;13.60;;;;;;;20.07;75.23;101518.66;5018556;28;20010;-78
2022/07/31 08:37:22;;;;;;;17.67;13.68;;;;;;;20.12;76.03;101526.84;5022474;28;20022;-79
2022/07/31 08:39:49;;;;;;;15.93;14.23;;;;;;;20.24;75.01;101529.09;5017834;28;20025;-79
2022/07/31 08:42:15;;;;;;;15.40;13.77;;;;;;;20.33;74.41;101528.06;5020013;28;20034;-80
2022/07/31 08:44:42;;;;;;;16.48;14.23;;;;;;;20.41;74.29;101535.94;5013639;28;20095;-78
2022/07/31 08:47:16;;;;;;;16.48;14.77;;;;;;;20.38;75.03;101538.91;5015346;28;20046;-80
2022/07/31 08:49:46;;;;;;;16.25;13.88;;;;;;;20.40;74.47;101529.03;5024942;28;20489;-80
2022/07/31 08:52:16;;;;;;;15.82;14.20;;;;;;;20.37;74.30;101524.13;5020015;28;20037;-79
2022/07/31 08:54:42;;;;;;;16.63;14.93;;;;;;;20.41;74.22;101533.28;5019209;28;20026;-79
2022/07/31 08:57:08;;;;;;;16.83;14.90;;;;;;;20.45;74.22;101531.16;5015967;28;20030;-80
2022/07/31 08:59:36;;;;;;;16.27;14.57;;;;;;;20.56;73.73;101518.44;5025129;28;20420;-78
2022/07/31 09:02:01;;;;;;;16.52;14.73;;;;;;;20.52;74.54;101526.84;5025165;28;20061;-79
2022/07/31 09:04:27;;;;;;;16.30;14.57;;;;;;;20.46;75.02;101522.28;5028958;28;20752;-79
2022/07/31 09:06:53;;;;;;;17.15;15.38;;;;;;;20.55;74.78;101524.69;5028151;28;20079;-80
2022/07/31 09:09:19;;;;;;;17.35;15.60;;;;;;;20.66;74.90;101534.84;5019701;28;20401;-79
2022/07/31 09:11:49;;;;;;;17.23;15.43;;;;;;;20.65;74.51;101527.94;5020590;28;20022;-79
2022/07/31 09:14:28;;;;;;;17.27;15.48;;;;;;;20.74;73.88;101535.78;5026978;28;20053;-76
2022/07/31 09:16:54;;;;;;;16.95;15.25;;;;;;;20.80;74.45;101521.91;5026661;28;20010;-78
2022/07/31 09:19:21;;;;;;;17.30;15.50;;;;;;;20.73;75.22;101531.50;5024458;28;20076;-79
2022/07/31 09:21:47;;;;;;;18.20;15.25;;;;;;;20.90;74.78;101519.88;5015513;28;20052;-79
2022/07/31 09:24:25;;;;;;;18.25;16.15;;;;;;;20.86;73.99;101519.38;5022594;28;20512;-79
2022/07/31 09:27:00;;;;;;;17.85;16.05;;;;;;;20.84;74.24;101531.13;5011971;28;20105;-77
2022/07/31 09:29:33;;;;;;;19.10;17.20;;;;;;;20.83;75.33;101532.13;5013662;28;20140;-79
2022/07/31 09:32:07;;;;;;;19.58;17.48;;;;;;;20.93;74.22;101524.78;5017629;28;20079;-79
2022/07/31 09:34:33;;;;;;;19.95;17.95;;;;;;;20.83;75.71;101518.94;5023451;28;20095;-78
2022/07/31 09:37:09;;;;;;;22.15;20.05;;;;;;;20.70;76.15;101530.03;5026935;28;20068;-79
2022/07/31 09:39:36;;;;;;;21.70;19.55;;;;;;;20.87;76.87;101536.03;5011344;28;20087;-77
2022/07/31 09:42:02;;;;;;;23.27;21.00;;;;;;;20.68;78.20;101532.84;5023004;28;20112;-78
2022/07/31 09:44:44;;;;;;;23.55;21.15;;;;;;;20.74;77.36;101533.16;5016499;28;20050;-78
2022/07/31 09:47:38;;;;;;;22.02;19.92;;;;;;;20.84;77.25;101534.56;5023317;28;20095;-79
2022/07/31 09:50:04;;;;;;;22.63;20.63;;;;;;;20.88;76.34;101529.78;5006226;28;20124;-78
2022/07/31 09:52:31;;;;;;;23.23;21.02;;;;;;;20.81;76.88;101527.00;5014403;28;20037;-78
2022/07/31 09:55:16;;;;;;;24.25;21.88;;;;;;;20.83;77.21;101535.56;5024092;28;20102;-78
2022/07/31 09:57:59;;;;;;;24.67;22.38;;;;;;;20.81;76.54;101526.19;5024403;28;20087;-78
2022/07/31 10:00:25;;;;;;;23.38;21.25;;;;;;;20.87;75.66;101520.19;5023467;28;20076;-78
2022/07/31 10:02:56;;;;;;;24.88;22.65;;;;;;;20.87;76.26;101526.31;5024753;28;20033;-79
2022/07/31 10:05:26;;;;;;;24.63;22.33;;;;;;;21.02;74.96;101522.91;5026893;28;20025;-77
2022/07/31 10:07:54;;;;;;;25.63;23.30;;;;;;;20.81;75.26;101528.81;5027688;28;20127;-78
2022/07/31 10:10:21;;;;;;;25.75;23.55;;;;;;;20.88;75.32;101519.22;5025580;28;20033;-78
2022/07/31 10:12:51;;;;;;;25.45;23.17;;;;;;;20.86;76.26;101529.09;5026653;28;20544;-78
2022/07/31 10:15:19;;;;;;;25.70;23.13;;;;;;;20.87;75.62;101520.19;5013704;28;20033;-78
2022/07/31 10:17:48;;;;;;;24.00;21.85;;;;;;;20.98;75.41;101516.34;5020839;28;20383;-78
2022/07/31 10:20:17;;;;;;;24.58;22.45;;;;;;;21.04;73.89;101511.16;5016871;28;20488;-79
2022/07/31 10:22:46;;;;;;;25.13;22.83;;;;;;;21.05;74.32;101518.09;5022438;28;20036;-78
2022/07/31 10:25:14;;;;;;;;;;;;;;;21.18;74.09;101512.22;5025817;28;20445;-78
2022/07/31 10:27:40;;;;;;;25.35;23.05;;;;;;;21.12;73.96;101497.13;5023597;28;19909;-78
2022/07/31 10:30:06;;;;;;;24.40;22.27;;;;;;;21.21;74.59;101507.41;5025492;28;20343;-77
2022/07/31 10:32:34;;;;;;;24.73;22.48;;;;;;;21.23;73.76;101493.22;5016835;28;20040;-78
2022/07/31 10:35:02;;;;;;;;;;;;;;;21.39;73.54;101503.63;5015217;28;20032;-78
2022/07/31 10:37:54;;;;;;;25.70;23.50;;;;;;;21.28;74.20;101502.25;5017745;28;20691;-78
2022/07/31 10:40:32;;;;;;;24.05;21.77;;;;;;;21.30;73.46;101494.19;5012831;28;20029;-78
2022/07/31 10:43:15;;;;;;;;;;;;;;;21.47;73.10;101511.50;5016989;28;20041;-79
2022/07/31 10:45:51;;;;;;;22.33;20.42;;;;;;;21.44;73.13;101506.56;5026740;28;19909;-79
2022/07/31 10:48:18;;;;;;;22.17;20.27;;;;;;;21.43;73.58;101499.66;5021631;28;20045;-78
2022/07/31 10:50:44;;;;;;;21.92;20.02;;;;;;;21.40;74.21;101505.31;5020910;28;20044;-78
2022/07/31 10:53:16;;;;;;;21.40;19.60;;;;;;;21.52;73.88;101498.59;5014799;28;20026;-77
2022/07/31 10:55:43;;;;;;;21.23;19.40;;;;;;;21.53;73.59;101489.66;5025142;28;20492;-78
2022/07/31 10:58:18;;;;;;;19.92;18.13;;;;;;;21.66;73.78;101483.75;5018257;28;20535;-80
2022/07/31 11:00:44;;;;;;;19.10;17.40;;;;;;;21.70;73.97;101485.84;5024793;28;20108;-78
2022/07/31 11:03:20;;;;;;;18.13;16.63;;;;;;;21.76;73.42;101488.75;5025041;28;20576;-79
2022/07/31 11:05:56;;;;;;;18.05;16.45;;;;;;;21.82;72.96;101482.75;5016024;28;20053;-81
2022/07/31 11:08:22;;;;;;;17.83;16.02;;;;;;;21.79;72.56;101483.09;5016139;28;20030;-78
2022/07/31 11:10:52;;;;;;;17.33;15.75;;;;;;;21.81;72.50;101481.09;5018038;28;20037;-78
2022/07/31 11:13:20;;;;;;;16.65;15.20;;;;;;;21.87;72.04;101475.09;5013374;28;20063;-79
2022/07/31 11:15:46;;;;;;;17.30;15.60;;;;;;;21.79;72.28;101472.53;5019596;28;20028;-78
2022/07/31 11:18:18;;;;;;;16.20;14.75;;;;;;;21.93;72.08;101477.00;5018846;28;20458;-78